sensor_id;sensor_type;location;lat;lon;timestamp;pressure;altitude;pressure_sealevel;temperature;humidity
68508;BME280;55510;49.560;19.090;2023-10-08T15:44:46;97122.75;;;8.08;62.42
68508;BME280;55510;49.560;19.090;2023-10-08T15:47:48;97124.88;;;7.79;65.44
68508;BME280;55510;49.560;19.090;2023-10-08T15:50:51;97121.81;;;7.69;67.91
68508;BME280;55510;49.560;19.090;2023-10-08T15:53:52;97126.94;;;7.57;69.38
68508;BME280;55510;49.560;19.090;2023-10-08T15:56:52;97123.06;;;7.39;70.59
68508;BME280;55510;49.560;19.090;2023-10-08T15:59:53;97132.66;;;7.40;67.76
68508;BME280;55510;49.560;19.090;2023-10-08T16:02:54;97137.97;;;7.27;68.67
68508;BME280;55510;49.560;19.090;2023-10-08T16:05:55;97132.25;;;7.10;71.43
68508;BME280;55510;49.560;19.090;2023-10-08T16:08:56;97131.41;;;6.96;72.50
68508;BME280;55510;49.560;19.090;2023-10-08T16:11:57;97140.38;;;6.88;74.93
68508;BME280;55510;49.560;19.090;2023-10-08T16:14:58;97146.41;;;6.68;78.47
68508;BME280;55510;49.560;19.090;2023-10-08T16:17:58;97160.19;;;6.44;80.74
68508;BME280;55510;49.560;19.090;2023-10-08T16:20:59;97151.59;;;6.35;81.76
68508;BME280;55510;49.560;19.090;2023-10-08T16:24:00;97162.94;;;6.22;82.88
68508;BME280;55510;49.560;19.090;2023-10-08T16:27:01;97167.31;;;6.01;85.40
68508;BME280;55510;49.560;19.090;2023-10-08T16:30:02;97169.88;;;5.94;86.12
68508;BME280;55510;49.560;19.090;2023-10-08T16:33:07;97167.16;;;5.81;86.39
68508;BME280;55510;49.560;19.090;2023-10-08T16:36:08;97177.38;;;5.62;88.58
68508;BME280;55510;49.560;19.090;2023-10-08T16:39:10;97183.81;;;5.53;89.48
68508;BME280;55510;49.560;19.090;2023-10-08T16:42:13;97195.66;;;5.35;91.83
68508;BME280;55510;49.560;19.090;2023-10-08T16:45:15;97190.25;;;5.22;91.40
68508;BME280;55510;49.560;19.090;2023-10-08T16:48:20;97205.97;;;5.08;93.21
68508;BME280;55510;49.560;19.090;2023-10-08T16:51:21;97206.72;;;5.02;93.36
68508;BME280;55510;49.560;19.090;2023-10-08T16:54:22;97204.25;;;4.79;95.56
68508;BME280;55510;49.560;19.090;2023-10-08T16:57:24;97211.28;;;4.72;95.31
68508;BME280;55510;49.560;19.090;2023-10-08T17:00:26;97203.13;;;4.52;97.09
68508;BME280;55510;49.560;19.090;2023-10-08T17:03:29;97210.41;;;4.34;97.23
68508;BME280;55510;49.560;19.090;2023-10-08T17:06:30;97211.41;;;4.18;99.45
68508;BME280;55510;49.560;19.090;2023-10-08T17:09:31;97210.03;;;3.92;100.00
68508;BME280;55510;49.560;19.090;2023-10-08T17:12:32;97214.59;;;3.99;100.00
68508;BME280;55510;49.560;19.090;2023-10-08T17:15:33;97222.13;;;3.87;100.00
68508;BME280;55510;49.560;19.090;2023-10-08T17:18:34;97226.84;;;3.91;100.00
68508;BME280;55510;49.560;19.090;2023-10-08T17:21:35;97245.00;;;3.86;100.00
68508;BME280;55510;49.560;19.090;2023-10-08T17:24:36;97244.91;;;3.80;100.00
68508;BME280;55510;49.560;19.090;2023-10-08T17:27:37;97253.81;;;3.79;100.00
68508;BME280;55510;49.560;19.090;2023-10-08T17:30:45;97251.69;;;3.74;100.00
68508;BME280;55510;49.560;19.090;2023-10-08T17:33:45;97257.31;;;3.71;100.00
68508;BME280;55510;49.560;19.090;2023-10-08T17:36:46;97264.56;;;3.69;100.00
68508;BME280;55510;49.560;19.090;2023-10-08T17:39:49;97266.78;;;3.80;100.00
68508;BME280;55510;49.560;19.090;2023-10-08T17:42:53;97267.88;;;3.86;100.00
68508;BME280;55510;49.560;19.090;2023-10-08T17:45:56;97261.16;;;3.83;100.00
68508;BME280;55510;49.560;19.090;2023-10-08T17:48:56;97272.97;;;3.87;100.00
68508;BME280;55510;49.560;19.090;2023-10-08T17:51:57;97275.50;;;3.81;100.00
68508;BME280;55510;49.560;19.090;2023-10-08T17:54:58;97272.50;;;3.84;100.00
68508;BME280;55510;49.560;19.090;2023-10-08T17:58:00;97287.47;;;3.83;100.00
68508;BME280;55510;49.560;19.090;2023-10-08T18:01:07;97285.41;;;3.79;100.00
68508;BME280;55510;49.560;19.090;2023-10-08T18:04:07;97290.19;;;3.75;100.00
68508;BME280;55510;49.560;19.090;2023-10-08T18:07:10;97287.91;;;3.72;100.00
68508;BME280;55510;49.560;19.090;2023-10-08T18:10:12;97294.34;;;3.69;100.00
68508;BME280;55510;49.560;19.090;2023-10-08T18:13:13;97286.63;;;3.68;100.00
68508;BME280;55510;49.560;19.090;2023-10-08T18:16:14;97287.22;;;3.55;100.00
68508;BME280;55510;49.560;19.090;2023-10-08T18:19:17;97298.03;;;3.60;100.00
68508;BME280;55510;49.560;19.090;2023-10-08T18:22:18;97307.56;;;3.61;100.00
68508;BME280;55510;49.560;19.090;2023-10-08T18:25:21;97306.13;;;3.58;100.00
68508;BME280;55510;49.560;19.090;2023-10-08T18:28:23;97304.94;;;3.61;100.00
68508;BME280;55510;49.560;19.090;2023-10-08T18:31:25;97303.31;;;3.60;100.00
68508;BME280;55510;49.560;19.090;2023-10-08T18:34:28;97300.03;;;3.58;100.00
68508;BME280;55510;49.560;19.090;2023-10-08T18:37:30;97310.56;;;3.58;100.00
68508;BME280;55510;49.560;19.090;2023-10-08T18:40:36;97322.28;;;3.55;100.00
68508;BME280;55510;49.560;19.090;2023-10-08T18:43:38;97321.09;;;3.58;100.00
68508;BME280;55510;49.560;19.090;2023-10-08T18:46:39;97330.25;;;3.62;100.00
68508;BME280;55510;49.560;19.090;2023-10-08T18:49:41;97329.91;;;3.65;100.00
68508;BME280;55510;49.560;19.090;2023-10-08T18:52:43;97326.91;;;3.68;100.00
68508;BME280;55510;49.560;19.090;2023-10-08T18:55:44;97330.09;;;3.63;100.00
68508;BME280;55510;49.560;19.090;2023-10-08T18:58:45;97336.00;;;3.66;100.00
68508;BME280;55510;49.560;19.090;2023-10-08T19:02:17;97337.81;;;3.65;100.00
68508;BME280;55510;49.560;19.090;2023-10-08T19:05:18;97338.28;;;3.69;100.00
68508;BME280;55510;49.560;19.090;2023-10-08T19:08:19;97325.13;;;3.69;100.00
68508;BME280;55510;49.560;19.090;2023-10-08T19:11:21;97329.41;;;3.70;100.00
68508;BME280;55510;49.560;19.090;2023-10-08T19:14:22;97336.47;;;3.69;100.00
68508;BME280;55510;49.560;19.090;2023-10-08T19:17:23;97328.75;;;3.68;100.00
68508;BME280;55510;49.560;19.090;2023-10-08T19:20:24;97329.09;;;3.65;100.00
68508;BME280;55510;49.560;19.090;2023-10-08T19:23:24;97332.91;;;3.62;100.00
68508;BME280;55510;49.560;19.090;2023-10-08T19:26:28;97325.63;;;3.64;100.00
68508;BME280;55510;49.560;19.090;2023-10-08T19:29:29;97336.38;;;3.62;100.00
68508;BME280;55510;49.560;19.090;2023-10-08T19:32:33;97332.09;;;3.61;100.00
68508;BME280;55510;49.560;19.090;2023-10-08T19:35:35;97331.25;;;3.61;100.00
68508;BME280;55510;49.560;19.090;2023-10-08T19:38:36;97335.25;;;3.57;100.00
68508;BME280;55510;49.560;19.090;2023-10-08T19:41:36;97338.06;;;3.55;100.00
68508;BME280;55510;49.560;19.090;2023-10-08T19:44:37;97331.47;;;3.51;100.00
68508;BME280;55510;49.560;19.090;2023-10-08T19:47:39;97335.09;;;3.50;100.00
68508;BME280;55510;49.560;19.090;2023-10-08T19:50:41;97337.09;;;3.48;100.00
68508;BME280;55510;49.560;19.090;2023-10-08T19:53:43;97338.56;;;3.27;100.00
68508;BME280;55510;49.560;19.090;2023-10-08T19:56:51;97342.13;;;3.34;100.00
68508;BME280;55510;49.560;19.090;2023-10-08T19:59:52;97351.94;;;3.41;100.00
68508;BME280;55510;49.560;19.090;2023-10-08T20:02:53;97343.91;;;3.42;100.00
68508;BME280;55510;49.560;19.090;2023-10-08T20:05:54;97341.56;;;3.47;100.00
68508;BME280;55510;49.560;19.090;2023-10-08T20:08:54;97345.63;;;3.50;100.00
68508;BME280;55510;49.560;19.090;2023-10-08T20:11:56;97340.44;;;3.42;100.00
68508;BME280;55510;49.560;19.090;2023-10-08T20:14:57;97336.50;;;3.38;100.00
68508;BME280;55510;49.560;19.090;2023-10-08T20:17:58;97343.72;;;3.44;100.00
68508;BME280;55510;49.560;19.090;2023-10-08T20:20:59;97340.63;;;3.40;100.00
68508;BME280;55510;49.560;19.090;2023-10-08T20:24:04;97343.06;;;3.42;100.00
68508;BME280;55510;49.560;19.090;2023-10-08T20:27:07;97352.78;;;3.41;100.00
68508;BME280;55510;49.560;19.090;2023-10-08T20:30:09;97351.59;;;3.44;100.00
68508;BME280;55510;49.560;19.090;2023-10-08T20:33:16;97338.50;;;3.36;100.00
68508;BME280;55510;49.560;19.090;2023-10-08T20:36:17;97348.56;;;3.32;100.00
68508;BME280;55510;49.560;19.090;2023-10-08T20:39:18;97356.78;;;3.29;100.00
68508;BME280;55510;49.560;19.090;2023-10-08T20:42:29;97355.97;;;3.28;100.00
68508;BME280;55510;49.560;19.090;2023-10-08T20:45:31;97336.38;;;3.31;100.00
68508;BME280;55510;49.560;19.090;2023-10-08T20:48:32;97351.34;;;3.30;100.00
68508;BME280;55510;49.560;19.090;2023-10-08T20:51:33;97335.41;;;3.32;100.00
68508;BME280;55510;49.560;19.090;2023-10-08T20:54:34;97336.84;;;3.34;100.00
68508;BME280;55510;49.560;19.090;2023-10-08T20:57:35;97335.34;;;3.40;100.00
68508;BME280;55510;49.560;19.090;2023-10-08T21:00:37;97326.13;;;3.44;100.00
68508;BME280;55510;49.560;19.090;2023-10-08T21:03:46;97334.16;;;3.43;100.00
68508;BME280;55510;49.560;19.090;2023-10-08T21:06:46;97325.81;;;3.39;100.00
68508;BME280;55510;49.560;19.090;2023-10-08T21:09:47;97334.66;;;3.46;100.00
68508;BME280;55510;49.560;19.090;2023-10-08T21:12:49;97333.31;;;3.51;100.00
68508;BME280;55510;49.560;19.090;2023-10-08T21:15:50;97340.38;;;3.50;100.00
68508;BME280;55510;49.560;19.090;2023-10-08T21:18:51;97333.13;;;3.52;100.00
68508;BME280;55510;49.560;19.090;2023-10-08T21:21:52;97341.50;;;3.56;100.00
68508;BME280;55510;49.560;19.090;2023-10-08T21:24:53;97342.97;;;3.58;100.00
68508;BME280;55510;49.560;19.090;2023-10-08T21:27:55;97336.06;;;3.57;100.00
68508;BME280;55510;49.560;19.090;2023-10-08T21:31:05;97335.31;;;3.48;100.00
68508;BME280;55510;49.560;19.090;2023-10-08T21:34:06;97328.53;;;3.54;100.00
68508;BME280;55510;49.560;19.090;2023-10-08T21:37:07;97327.06;;;3.52;100.00
68508;BME280;55510;49.560;19.090;2023-10-08T21:40:11;97321.66;;;3.45;100.00
68508;BME280;55510;49.560;19.090;2023-10-08T21:43:12;97325.56;;;3.49;100.00
68508;BME280;55510;49.560;19.090;2023-10-08T21:46:13;97329.50;;;3.53;100.00
68508;BME280;55510;49.560;19.090;2023-10-08T21:49:14;97327.53;;;3.55;100.00
68508;BME280;55510;49.560;19.090;2023-10-08T21:52:16;97321.44;;;3.55;100.00
68508;BME280;55510;49.560;19.090;2023-10-08T21:55:17;97318.00;;;3.54;100.00
68508;BME280;55510;49.560;19.090;2023-10-08T21:58:18;97323.78;;;3.50;100.00
68508;BME280;55510;49.560;19.090;2023-10-08T22:01:19;97321.50;;;3.46;100.00
68508;BME280;55510;49.560;19.090;2023-10-08T22:04:24;97317.69;;;3.49;100.00
68508;BME280;55510;49.560;19.090;2023-10-08T22:07:26;97312.31;;;3.42;100.00
68508;BME280;55510;49.560;19.090;2023-10-08T22:10:26;97306.13;;;3.35;100.00
68508;BME280;55510;49.560;19.090;2023-10-08T22:13:28;97312.56;;;3.01;100.00
68508;BME280;55510;49.560;19.090;2023-10-08T22:16:30;97304.53;;;2.94;100.00
68508;BME280;55510;49.560;19.090;2023-10-08T22:19:32;97305.16;;;2.96;100.00
68508;BME280;55510;49.560;19.090;2023-10-08T22:22:43;97307.19;;;2.86;100.00
68508;BME280;55510;49.560;19.090;2023-10-08T22:25:48;97306.50;;;2.92;100.00
68508;BME280;55510;49.560;19.090;2023-10-08T22:28:49;97309.31;;;2.90;100.00
68508;BME280;55510;49.560;19.090;2023-10-08T22:31:54;97305.06;;;2.89;100.00
68508;BME280;55510;49.560;19.090;2023-10-08T22:34:59;97296.69;;;2.86;100.00
68508;BME280;55510;49.560;19.090;2023-10-08T22:38:01;97300.94;;;2.87;100.00
68508;BME280;55510;49.560;19.090;2023-10-08T22:41:02;97304.06;;;2.90;100.00
68508;BME280;55510;49.560;19.090;2023-10-08T22:44:05;97300.59;;;2.90;100.00
68508;BME280;55510;49.560;19.090;2023-10-08T22:47:09;97291.06;;;2.89;100.00
68508;BME280;55510;49.560;19.090;2023-10-08T22:50:10;97282.19;;;2.90;100.00
68508;BME280;55510;49.560;19.090;2023-10-08T22:53:31;97292.06;;;2.88;100.00
68508;BME280;55510;49.560;19.090;2023-10-08T22:56:32;97298.16;;;2.80;100.00
68508;BME280;55510;49.560;19.090;2023-10-08T22:59:33;97286.25;;;2.69;100.00
68508;BME280;55510;49.560;19.090;2023-10-08T23:02:35;97291.84;;;2.66;100.00
68508;BME280;55510;49.560;19.090;2023-10-08T23:05:39;97283.63;;;2.61;100.00
68508;BME280;55510;49.560;19.090;2023-10-08T23:08:40;97285.00;;;2.49;100.00
68508;BME280;55510;49.560;19.090;2023-10-08T23:11:43;97280.09;;;2.45;100.00
68508;BME280;55510;49.560;19.090;2023-10-08T23:14:47;97285.19;;;2.39;100.00
68508;BME280;55510;49.560;19.090;2023-10-08T23:17:49;97281.09;;;2.36;100.00
68508;BME280;55510;49.560;19.090;2023-10-08T23:20:50;97284.72;;;2.35;100.00
68508;BME280;55510;49.560;19.090;2023-10-08T23:23:51;97288.19;;;2.27;100.00
68508;BME280;55510;49.560;19.090;2023-10-08T23:26:52;97280.00;;;2.22;100.00
68508;BME280;55510;49.560;19.090;2023-10-08T23:29:52;97280.00;;;2.14;100.00
68508;BME280;55510;49.560;19.090;2023-10-08T23:32:53;97281.84;;;1.97;100.00
68508;BME280;55510;49.560;19.090;2023-10-08T23:36:01;97275.94;;;1.95;100.00
68508;BME280;55510;49.560;19.090;2023-10-08T23:39:07;97279.22;;;1.88;100.00
68508;BME280;55510;49.560;19.090;2023-10-08T23:42:17;97281.53;;;1.83;100.00
68508;BME280;55510;49.560;19.090;2023-10-08T23:45:31;97282.22;;;1.77;100.00
68508;BME280;55510;49.560;19.090;2023-10-08T23:48:41;97286.13;;;1.73;100.00
68508;BME280;55510;49.560;19.090;2023-10-08T23:51:53;97288.09;;;1.63;100.00
68508;BME280;55510;49.560;19.090;2023-10-08T23:54:57;97283.34;;;1.58;100.00
68508;BME280;55510;49.560;19.090;2023-10-08T23:57:58;97274.00;;;1.55;100.00
